Time;durP1;ratioP1;P1;durP2;ratioP2;P2;SDS_P1;SDS_P2;PMS_P1;PMS_P2;Temp;Humidity;BMP_temperature;BMP_pressure;BME280_temperature;BME280_humidity;BME280_pressure;Samples;Min_cycle;Max_cycle;Signal;HPM_P1;HPM_P2
2022/01/15 00:01:07;;;;;;;25.90;6.38;;;;;;;;;;5068820;28;20037;-76
2022/01/15 00:03:33;;;;;;;44.00;6.75;;;;;;;;;;5069889;28;20133;-76
2022/01/15 00:05:59;;;;;;;64.95;6.55;;;;;;;;;;5069875;28;20048;-76
2022/01/15 00:08:25;;;;;;;49.33;7.13;;;;;;;;;;5052747;28;20080;-76
2022/01/15 00:10:51;;;;;;;47.25;7.40;;;;;;;;;;5103321;28;20044;-76
2022/01/15 00:13:27;;;;;;;50.33;7.70;;;;;;;;;;5069093;28;20036;-76
2022/01/15 00:16:05;;;;;;;72.38;7.03;;;;;;;;;;5053507;28;20439;-76
2022/01/15 00:18:44;;;;;;;40.78;6.43;;;;;;;;;;5069304;28;20510;-76
2022/01/15 00:21:11;;;;;;;26.63;5.28;;;;;;;;;;5068770;28;20044;-76
2022/01/15 00:23:37;;;;;;;33.17;5.88;;;;;;;;;;5068676;28;20078;-76
2022/01/15 00:26:04;;;;;;;26.95;5.47;;;;;;;;;;5069294;28;20102;-76
2022/01/15 00:28:30;;;;;;;14.80;4.93;;;;;;;;;;5070666;28;20072;-76
2022/01/15 00:30:56;;;;;;;21.52;5.82;;;;;;;;;;5069236;28;20123;-76
2022/01/15 00:33:22;;;;;;;27.77;6.22;;;;;;;;;;5068693;28;20127;-76
2022/01/15 00:35:48;;;;;;;28.92;5.88;;;;;;;;;;5053019;28;20404;-76
2022/01/15 00:38:15;;;;;;;15.55;4.97;;;;;;;;;;5052397;28;20508;-76
2022/01/15 00:40:41;;;;;;;13.70;5.22;;;;;;;;;;5068977;28;20048;-76
2022/01/15 00:43:07;;;;;;;18.00;5.53;;;;;;;;;;5068640;28;20044;-76
2022/01/15 00:45:33;;;;;;;17.90;5.28;;;;;;;;;;5052816;28;20040;-76
2022/01/15 00:48:00;;;;;;;15.38;5.70;;;;;;;;;;5069386;28;20347;-76
2022/01/15 00:50:26;;;;;;;12.68;4.60;;;;;;;;;;5068566;28;20127;-76
2022/01/15 00:52:52;;;;;;;14.45;4.70;;;;;;;;;;5068702;28;20446;-76
2022/01/15 00:55:19;;;;;;;14.73;4.53;;;;;;;;;;5068255;28;20082;-76
2022/01/15 00:57:45;;;;;;;10.80;4.38;;;;;;;;;;5068958;28;20449;-76
2022/01/15 01:00:14;;;;;;;12.43;4.50;;;;;;;;;;5069286;28;20093;-76
2022/01/15 01:02:40;;;;;;;11.98;4.18;;;;;;;;;;5068903;28;20045;-76
2022/01/15 01:05:07;;;;;;;12.23;4.50;;;;;;;;;;5068579;28;20044;-76
2022/01/15 01:07:33;;;;;;;10.45;4.07;;;;;;;;;;5052348;28;20044;-76
2022/01/15 01:23:05;;;;;;;9.13;3.60;;;;;;;;;;5068050;28;20040;-76
2022/01/15 01:25:39;;;;;;;9.32;3.70;;;;;;;;;;5068441;28;20040;-76
2022/01/15 01:28:10;;;;;;;8.55;3.55;;;;;;;;;;5051515;28;20040;-76
2022/01/15 01:31:01;;;;;;;10.98;3.80;;;;;;;;;;5051708;28;20404;-76
2022/01/15 01:38:35;;;;;;;9.30;3.85;;;;;;;;;;5067864;28;20044;-76
2022/01/15 01:41:01;;;;;;;9.80;3.85;;;;;;;;;;5068460;28;20045;-76
2022/01/15 01:46:46;;;;;;;8.90;3.38;;;;;;;;;;5069634;28;20047;-76
2022/01/15 01:48:41;;;;;;;10.80;4.10;;;;;;;;;;5054059;28;20051;-76
2022/01/15 01:51:07;;;;;;;12.63;3.97;;;;;;;;;;5047405;28;20044;-76
2022/01/15 01:53:34;;;;;;;11.45;3.90;;;;;;;;;;5048176;28;20057;-76
2022/01/15 01:56:00;;;;;;;11.15;4.10;;;;;;;;;;5048060;28;20048;-76
2022/01/15 01:58:27;;;;;;;10.05;4.00;;;;;;;;;;5047833;28;20037;-76
2022/01/15 02:00:53;;;;;;;9.48;3.72;;;;;;;;;;5047846;28;20040;-76
2022/01/15 02:03:19;;;;;;;8.75;3.67;;;;;;;;;;5047413;28;20127;-76
2022/01/15 02:05:45;;;;;;;9.57;3.58;;;;;;;;;;5048631;28;20517;-76
2022/01/15 02:08:11;;;;;;;14.27;4.00;;;;;;;;;;5047280;28;20045;-76
2022/01/15 02:10:38;;;;;;;13.18;4.25;;;;;;;;;;5031167;28;20557;-76
2022/01/15 02:13:08;;;;;;;10.65;3.53;;;;;;;;;;5047821;28;20057;-76
2022/01/15 02:15:36;;;;;;;9.48;3.70;;;;;;;;;;5048079;28;20087;-76
2022/01/15 02:18:02;;;;;;;10.68;3.90;;;;;;;;;;5031615;28;20132;-76
2022/01/15 02:25:44;;;;;;;11.27;3.70;;;;;;;;;;5037600;28;20092;-76
2022/01/15 02:28:10;;;;;;;8.38;3.60;;;;;;;;;;5051389;28;20059;-76
2022/01/15 02:30:36;;;;;;;9.05;3.55;;;;;;;;;;5053444;28;20045;-76
2022/01/15 02:33:02;;;;;;;6.78;3.10;;;;;;;;;;5072350;28;20041;-77
2022/01/15 02:35:29;;;;;;;7.50;2.95;;;;;;;;;;5070958;28;20119;-77
2022/01/15 02:37:55;;;;;;;6.55;2.70;;;;;;;;;;5071861;28;20094;-76
2022/01/15 02:40:21;;;;;;;7.47;2.80;;;;;;;;;;5070728;28;20044;-76
2022/01/15 02:42:47;;;;;;;4.30;1.73;;;;;;;;;;5054779;28;20052;-76
2022/01/15 02:45:20;;;;;;;3.78;1.80;;;;;;;;;;5054428;28;20048;-76
2022/01/15 02:48:01;;;;;;;4.63;1.80;;;;;;;;;;5072600;28;20442;-76
2022/01/15 02:50:27;;;;;;;3.45;1.70;;;;;;;;;;5070985;28;20442;-76
2022/01/15 02:52:53;;;;;;;4.78;2.20;;;;;;;;;;5071027;28;20053;-76
2022/01/15 02:55:20;;;;;;;4.78;2.10;;;;;;;;;;5070597;28;20044;-76
2022/01/15 02:57:46;;;;;;;5.38;2.60;;;;;;;;;;5071364;28;20047;-76
2022/01/15 03:00:12;;;;;;;6.95;2.38;;;;;;;;;;5054181;28;20079;-76
2022/01/15 03:02:38;;;;;;;6.25;2.47;;;;;;;;;;5059894;28;20040;-76
2022/01/15 03:05:05;;;;;;;5.15;2.30;;;;;;;;;;5053308;28;20039;-76
2022/01/15 03:07:31;;;;;;;6.55;2.30;;;;;;;;;;5053238;28;20373;-76
2022/01/15 03:09:57;;;;;;;5.78;2.53;;;;;;;;;;5054519;28;20523;-76
2022/01/15 03:12:24;;;;;;;7.90;2.70;;;;;;;;;;5070255;28;20048;-76
2022/01/15 03:14:50;;;;;;;6.25;2.40;;;;;;;;;;5037885;28;20044;-76
2022/01/15 03:17:16;;;;;;;7.45;2.55;;;;;;;;;;5070083;28;20056;-76
2022/01/15 03:19:42;;;;;;;6.13;2.45;;;;;;;;;;5070721;28;20042;-76
2022/01/15 03:22:09;;;;;;;8.52;2.40;;;;;;;;;;5071586;28;20047;-76
2022/01/15 03:24:35;;;;;;;6.32;2.50;;;;;;;;;;5070514;28;20044;-76
2022/01/15 03:27:01;;;;;;;7.10;2.65;;;;;;;;;;5070453;28;20136;-76
2022/01/15 03:29:27;;;;;;;5.75;2.30;;;;;;;;;;5053303;28;20141;-76
2022/01/15 03:31:53;;;;;;;5.03;2.00;;;;;;;;;;5053380;28;20050;-76
2022/01/15 03:34:19;;;;;;;4.55;2.13;;;;;;;;;;5069174;28;20115;-76
2022/01/15 03:36:45;;;;;;;7.80;2.47;;;;;;;;;;5070357;28;20044;-75
2022/01/15 03:39:11;;;;;;;5.10;2.33;;;;;;;;;;5070080;28;20052;-75
2022/01/15 03:41:37;;;;;;;3.95;2.00;;;;;;;;;;5070582;28;20063;-76
2022/01/15 03:44:03;;;;;;;6.70;2.20;;;;;;;;;;5070629;28;20067;-76
2022/01/15 03:46:30;;;;;;;6.28;2.50;;;;;;;;;;5070087;28;20051;-76
2022/01/15 03:48:56;;;;;;;5.90;2.50;;;;;;;;;;5070475;28;20063;-75
2022/01/15 03:51:22;;;;;;;5.88;2.67;;;;;;;;;;5052662;28;20088;-76
2022/01/15 03:53:48;;;;;;;4.45;2.10;;;;;;;;;;5070090;28;20123;-76
2022/01/15 03:56:14;;;;;;;6.13;2.30;;;;;;;;;;5069473;28;20044;-76
2022/01/15 03:58:40;;;;;;;6.80;2.10;;;;;;;;;;5070051;28;20040;-76
2022/01/15 04:01:06;;;;;;;7.15;2.65;;;;;;;;;;5069852;28;20511;-76
2022/01/15 04:03:33;;;;;;;5.03;2.10;;;;;;;;;;5069823;28;20170;-76
2022/01/15 04:05:59;;;;;;;7.05;2.70;;;;;;;;;;5069636;28;20048;-76
2022/01/15 04:08:25;;;;;;;7.55;2.70;;;;;;;;;;5068719;28;20131;-76
2022/01/15 04:10:51;;;;;;;6.55;2.42;;;;;;;;;;5052981;28;20044;-76
2022/01/15 04:13:17;;;;;;;6.30;2.15;;;;;;;;;;5069294;28;20488;-76
2022/01/15 04:15:44;;;;;;;6.53;2.08;;;;;;;;;;5069986;28;20032;-75
2022/01/15 04:18:10;;;;;;;5.18;2.25;;;;;;;;;;5070080;28;20036;-76
2022/01/15 04:20:36;;;;;;;5.55;2.50;;;;;;;;;;5069832;28;20129;-76
2022/01/15 04:23:02;;;;;;;7.78;2.50;;;;;;;;;;5069584;28;20504;-76
2022/01/15 04:25:28;;;;;;;6.05;2.35;;;;;;;;;;5069184;28;20068;-75
2022/01/15 04:28:01;;;;;;;9.60;2.50;;;;;;;;;;5069546;28;20044;-76
2022/01/15 04:30:27;;;;;;;5.53;2.42;;;;;;;;;;5068769;28;20076;-76
2022/01/15 04:32:53;;;;;;;7.28;2.38;;;;;;;;;;5069728;28;20067;-77
2022/01/15 04:35:19;;;;;;;5.68;2.17;;;;;;;;;;5035524;28;20090;-76
2022/01/15 04:37:49;;;;;;;5.43;2.08;;;;;;;;;;5069391;28;20041;-76
2022/01/15 04:40:16;;;;;;;5.63;2.42;;;;;;;;;;5069015;28;20411;-76
2022/01/15 04:42:43;;;;;;;5.75;2.30;;;;;;;;;;5069098;28;20083;-76
2022/01/15 04:45:09;;;;;;;6.78;2.35;;;;;;;;;;5068166;28;20044;-76
2022/01/15 04:47:36;;;;;;;7.10;2.05;;;;;;;;;;5069015;28;20049;-76
2022/01/15 04:50:03;;;;;;;4.63;2.00;;;;;;;;;;5069065;28;20039;-75
2022/01/15 04:52:30;;;;;;;6.43;2.50;;;;;;;;;;5068306;28;20059;-76
2022/01/15 04:54:57;;;;;;;5.90;1.80;;;;;;;;;;5068921;28;20170;-76
2022/01/15 04:57:23;;;;;;;6.40;2.08;;;;;;;;;;5068317;28;20119;-76
2022/01/15 04:59:49;;;;;;;4.93;1.80;;;;;;;;;;5069923;28;20048;-76
2022/01/15 05:02:15;;;;;;;5.65;1.70;;;;;;;;;;5062947;28;20123;-76
2022/01/15 05:04:41;;;;;;;4.47;1.73;;;;;;;;;;5068366;28;20131;-76
2022/01/15 05:07:07;;;;;;;4.93;1.55;;;;;;;;;;5067233;28;20052;-76
2022/01/15 05:09:33;;;;;;;4.90;1.50;;;;;;;;;;5068386;28;20507;-76
2022/01/15 05:12:09;;;;;;;4.22;1.63;;;;;;;;;;5068463;28;20041;-76
2022/01/15 05:14:35;;;;;;;3.70;1.42;;;;;;;;;;5068458;28;20154;-76
2022/01/15 05:17:02;;;;;;;4.95;1.48;;;;;;;;;;5068584;28;20055;-76
2022/01/15 05:19:28;;;;;;;4.78;1.40;;;;;;;;;;5067978;28;20044;-76
2022/01/15 05:21:56;;;;;;;3.05;1.20;;;;;;;;;;5051850;28;20048;-76
2022/01/15 05:24:23;;;;;;;4.97;1.30;;;;;;;;;;5067742;28;20124;-76
2022/01/15 05:26:49;;;;;;;3.60;1.40;;;;;;;;;;5051888;28;20044;-76
2022/01/15 05:29:15;;;;;;;4.55;1.50;;;;;;;;;;5067448;28;20573;-76
2022/01/15 05:31:41;;;;;;;4.55;1.52;;;;;;;;;;5051175;28;20044;-76
2022/01/15 05:34:07;;;;;;;5.88;1.50;;;;;;;;;;5051380;28;20041;-76
2022/01/15 05:36:33;;;;;;;4.55;1.40;;;;;;;;;;5051805;28;20553;-76
2022/01/15 05:38:59;;;;;;;6.13;1.83;;;;;;;;;;5051688;28;20127;-76
2022/01/15 05:41:25;;;;;;;6.88;1.65;;;;;;;;;;5067755;28;20046;-76
2022/01/15 05:43:51;;;;;;;3.22;1.40;;;;;;;;;;5068254;28;20533;-76
2022/01/15 05:46:17;;;;;;;4.72;1.67;;;;;;;;;;5050958;28;20089;-76
2022/01/15 05:48:44;;;;;;;4.35;1.70;;;;;;;;;;5068260;28;20036;-76
2022/01/15 05:51:10;;;;;;;6.45;1.70;;;;;;;;;;5050621;28;20131;-76
2022/01/15 05:53:36;;;;;;;4.95;1.83;;;;;;;;;;5067844;28;20052;-76
2022/01/15 05:56:03;;;;;;;5.40;1.77;;;;;;;;;;5068182;28;20373;-76
2022/01/15 05:58:29;;;;;;;5.55;1.70;;;;;;;;;;5067219;28;20127;-76
2022/01/15 06:00:55;;;;;;;5.32;1.80;;;;;;;;;;5067797;28;20052;-76
2022/01/15 06:03:21;;;;;;;4.82;1.45;;;;;;;;;;5067541;28;20484;-76
2022/01/15 06:05:47;;;;;;;5.95;1.90;;;;;;;;;;5067363;28;20041;-76
2022/01/15 06:08:13;;;;;;;4.60;1.80;;;;;;;;;;5068103;28;20522;-76
2022/01/15 06:10:40;;;;;;;5.10;2.05;;;;;;;;;;5067876;28;20044;-76
2022/01/15 06:13:06;;;;;;;5.43;2.10;;;;;;;;;;5067763;28;20127;-76
2022/01/15 06:15:32;;;;;;;5.28;2.40;;;;;;;;;;5067450;28;20048;-76
2022/01/15 06:17:59;;;;;;;6.78;2.70;;;;;;;;;;5051104;28;20090;-76
2022/01/15 06:20:25;;;;;;;7.00;2.50;;;;;;;;;;5067444;28;20484;-76
2022/01/15 06:22:51;;;;;;;6.82;2.75;;;;;;;;;;5067889;28;20041;-76
2022/01/15 06:25:17;;;;;;;8.32;2.63;;;;;;;;;;5050877;28;20040;-76
2022/01/15 06:27:43;;;;;;;7.43;2.70;;;;;;;;;;5067714;28;20408;-76
2022/01/15 06:30:10;;;;;;;6.55;2.70;;;;;;;;;;5050169;28;20041;-76
2022/01/15 06:32:36;;;;;;;5.95;2.33;;;;;;;;;;5067331;28;20048;-76
2022/01/15 06:35:04;;;;;;;6.28;2.40;;;;;;;;;;5067586;28;20040;-76
2022/01/15 06:37:30;;;;;;;7.20;2.38;;;;;;;;;;5051080;28;20131;-76
2022/01/15 06:39:56;;;;;;;5.60;2.03;;;;;;;;;;5067894;28;20036;-76
2022/01/15 06:42:22;;;;;;;6.28;2.45;;;;;;;;;;5068541;28;20041;-76
2022/01/15 06:44:48;;;;;;;5.93;2.47;;;;;;;;;;5067477;28;20089;-76
2022/01/15 06:47:14;;;;;;;4.38;1.90;;;;;;;;;;5050070;28;20041;-76
2022/01/15 06:49:40;;;;;;;5.47;2.03;;;;;;;;;;5067591;28;20543;-76
2022/01/15 06:52:06;;;;;;;4.55;1.80;;;;;;;;;;5067211;28;20052;-76
2022/01/15 06:54:32;;;;;;;4.07;1.70;;;;;;;;;;5050427;28;20403;-76
2022/01/15 06:56:58;;;;;;;5.18;1.90;;;;;;;;;;5067302;28;20044;-76
2022/01/15 06:59:24;;;;;;;5.47;2.00;;;;;;;;;;5067061;28;20082;-76
2022/01/15 07:01:50;;;;;;;5.60;1.90;;;;;;;;;;5067005;28;20142;-76
2022/01/15 07:04:17;;;;;;;5.07;1.90;;;;;;;;;;5068008;28;20052;-76
2022/01/15 07:06:43;;;;;;;4.65;1.85;;;;;;;;;;5067192;28;20032;-76
2022/01/15 07:09:09;;;;;;;5.63;2.05;;;;;;;;;;5067553;28;20131;-76
2022/01/15 07:11:35;;;;;;;7.13;2.42;;;;;;;;;;5053989;28;20068;-76
2022/01/15 07:14:01;;;;;;;8.27;2.10;;;;;;;;;;5054297;28;20040;-76
2022/01/15 07:16:27;;;;;;;5.88;2.45;;;;;;;;;;5069975;28;20078;-76
2022/01/15 07:18:53;;;;;;;5.78;2.67;;;;;;;;;;5071920;28;20040;-76
2022/01/15 07:21:19;;;;;;;8.07;2.80;;;;;;;;;;5071537;28;20045;-76
2022/01/15 07:23:45;;;;;;;7.28;2.72;;;;;;;;;;5071243;28;20048;-76
2022/01/15 07:26:11;;;;;;;6.47;2.40;;;;;;;;;;5070085;28;20123;-76
2022/01/15 07:28:38;;;;;;;9.90;3.30;;;;;;;;;;5070601;28;20102;-76
2022/01/15 07:31:04;;;;;;;7.55;3.22;;;;;;;;;;5070375;28;20036;-76
2022/01/15 07:33:30;;;;;;;7.97;3.20;;;;;;;;;;5053355;28;20040;-76
2022/01/15 07:35:56;;;;;;;10.23;3.47;;;;;;;;;;5071908;28;20036;-76
2022/01/15 07:38:22;;;;;;;8.93;3.55;;;;;;;;;;5070233;28;20120;-76
2022/01/15 07:40:49;;;;;;;9.23;3.33;;;;;;;;;;5070340;28;20063;-76
2022/01/15 07:43:15;;;;;;;10.05;3.85;;;;;;;;;;5070011;28;20048;-76
2022/01/15 07:45:41;;;;;;;9.00;3.70;;;;;;;;;;5070301;28;20400;-76
2022/01/15 07:48:07;;;;;;;7.20;3.03;;;;;;;;;;5070020;28;20051;-76
2022/01/15 07:50:34;;;;;;;5.97;2.72;;;;;;;;;;5070066;28;20056;-76
2022/01/15 07:53:00;;;;;;;9.02;3.28;;;;;;;;;;5070147;28;20124;-76
2022/01/15 07:55:26;;;;;;;8.60;3.38;;;;;;;;;;5069792;28;20053;-76
2022/01/15 07:57:52;;;;;;;9.20;3.50;;;;;;;;;;5053377;28;20039;-76
2022/01/15 08:00:19;;;;;;;10.35;3.92;;;;;;;;;;5069700;28;20122;-76
2022/01/15 08:02:45;;;;;;;11.68;4.18;;;;;;;;;;5069740;28;20036;-76
2022/01/15 08:05:12;;;;;;;9.32;3.50;;;;;;;;;;5053156;28;20070;-76
2022/01/15 08:07:40;;;;;;;10.50;3.78;;;;;;;;;;5053193;28;20040;-76
2022/01/15 08:10:07;;;;;;;9.10;3.28;;;;;;;;;;5069866;28;20115;-76
2022/01/15 08:12:33;;;;;;;11.23;3.85;;;;;;;;;;5069373;28;20044;-76
2022/01/15 08:14:59;;;;;;;11.00;3.83;;;;;;;;;;5069480;28;20072;-76
2022/01/15 08:17:25;;;;;;;13.23;4.10;;;;;;;;;;5069381;28;20463;-76
2022/01/15 08:19:51;;;;;;;10.82;3.78;;;;;;;;;;5069691;28;20036;-76
2022/01/15 08:22:17;;;;;;;12.50;4.10;;;;;;;;;;5068963;28;20083;-76
2022/01/15 08:24:43;;;;;;;9.77;3.53;;;;;;;;;;5069769;28;20123;-75
2022/01/15 08:27:09;;;;;;;8.43;3.00;;;;;;;;;;5068971;28;20066;-76
2022/01/15 08:29:35;;;;;;;8.00;3.17;;;;;;;;;;5069468;28;20048;-76
2022/01/15 08:32:02;;;;;;;8.57;2.97;;;;;;;;;;5069383;28;20087;-76
2022/01/15 08:34:28;;;;;;;10.18;3.90;;;;;;;;;;5069349;28;20040;-76
2022/01/15 08:36:54;;;;;;;10.25;3.92;;;;;;;;;;5069214;28;20048;-76
2022/01/15 08:39:20;;;;;;;10.20;3.85;;;;;;;;;;5068872;28;20072;-76
2022/01/15 08:41:48;;;;;;;12.20;3.78;;;;;;;;;;5070620;28;20055;-76
2022/01/15 08:44:15;;;;;;;10.10;3.75;;;;;;;;;;5052386;28;20049;-76
2022/01/15 08:46:41;;;;;;;9.68;3.70;;;;;;;;;;5069530;28;20403;-76
2022/01/15 08:49:07;;;;;;;10.18;3.72;;;;;;;;;;5069523;28;20392;-76
2022/01/15 08:51:33;;;;;;;14.05;4.70;;;;;;;;;;5068338;28;20529;-75
2022/01/15 08:53:59;;;;;;;20.70;5.95;;;;;;;;;;5069322;28;20124;-76
2022/01/15 08:56:26;;;;;;;18.30;5.80;;;;;;;;;;5068777;28;20036;-75
2022/01/15 08:58:52;;;;;;;19.73;6.28;;;;;;;;;;5068776;28;20429;-75
2022/01/15 09:01:18;;;;;;;21.70;6.65;;;;;;;;;;5051563;28;20088;-76
2022/01/15 09:03:44;;;;;;;18.38;6.22;;;;;;;;;;5068838;28;20051;-75
2022/01/15 09:06:10;;;;;;;18.20;6.57;;;;;;;;;;5068646;28;20048;-76
2022/01/15 09:08:37;;;;;;;18.02;6.78;;;;;;;;;;5068857;28;20082;-76
2022/01/15 09:11:03;;;;;;;20.67;7.53;;;;;;;;;;5051918;28;20059;-76
2022/01/15 09:13:29;;;;;;;20.38;7.35;;;;;;;;;;5051323;28;20059;-75
2022/01/15 09:15:57;;;;;;;21.88;7.93;;;;;;;;;;5068925;28;20114;-76
2022/01/15 09:18:23;;;;;;;24.35;8.20;;;;;;;;;;5068126;28;20444;-76
2022/01/15 09:20:49;;;;;;;29.15;8.82;;;;;;;;;;5068298;28;20090;-75
2022/01/15 09:23:17;;;;;;;24.73;9.27;;;;;;;;;;5051589;28;20044;-76
2022/01/15 09:25:43;;;;;;;28.13;9.68;;;;;;;;;;5052107;28;20123;-76
2022/01/15 09:30:55;;;;;;;30.13;9.95;;;;;;;;;;5069389;28;20048;-76
2022/01/15 09:33:21;;;;;;;32.53;10.40;;;;;;;;;;5067253;28;20116;-76
2022/01/15 09:35:47;;;;;;;56.15;20.23;;;;;;;;;;5068080;28;20039;-76
2022/01/15 09:38:15;;;;;;;35.80;11.90;;;;;;;;;;5051056;28;20139;-76
2022/01/15 09:40:41;;;;;;;34.45;11.60;;;;;;;;;;5067873;28;20048;-76
2022/01/15 09:43:08;;;;;;;35.10;11.63;;;;;;;;;;5068367;28;20427;-76
2022/01/15 09:45:35;;;;;;;41.88;12.93;;;;;;;;;;5068019;28;20131;-76
2022/01/15 09:48:03;;;;;;;37.05;11.98;;;;;;;;;;5051138;28;20044;-76
2022/01/15 09:50:31;;;;;;;44.55;12.98;;;;;;;;;;5067095;28;20171;-76
2022/01/15 09:52:59;;;;;;;44.33;13.32;;;;;;;;;;5067493;28;20052;-75
2022/01/15 09:55:25;;;;;;;44.33;14.32;;;;;;;;;;5050866;28;20063;-75
2022/01/15 09:57:52;;;;;;;50.72;13.15;;;;;;;;;;5067903;28;20068;-76
2022/01/15 10:00:19;;;;;;;44.78;13.13;;;;;;;;;;5067671;28;20567;-76
2022/01/15 10:02:46;;;;;;;49.53;13.90;;;;;;;;;;5067855;28;20106;-76
2022/01/15 10:05:13;;;;;;;45.30;14.00;;;;;;;;;;5068413;28;20082;-76
2022/01/15 10:07:53;;;;;;;42.83;13.73;;;;;;;;;;5067676;28;20051;-75
2022/01/15 10:10:20;;;;;;;48.55;13.38;;;;;;;;;;5067581;28;20438;-76
2022/01/15 10:12:47;;;;;;;51.15;12.88;;;;;;;;;;5069190;28;20040;-76
2022/01/15 10:15:13;;;;;;;39.20;12.93;;;;;;;;;;5067506;28;20091;-76
2022/01/15 10:17:40;;;;;;;34.60;12.68;;;;;;;;;;5051118;28;20040;-76
2022/01/15 10:20:08;;;;;;;35.70;12.13;;;;;;;;;;5067682;28;20143;-76
2022/01/15 10:22:38;;;;;;;49.95;14.15;;;;;;;;;;5067213;28;20059;-76
2022/01/15 10:25:14;;;;;;;44.13;13.85;;;;;;;;;;5067885;28;20047;-76
2022/01/15 10:27:42;;;;;;;47.20;14.27;;;;;;;;;;5067835;28;20127;-76
2022/01/15 10:30:16;;;;;;;39.20;12.80;;;;;;;;;;5069214;28;20036;-76
2022/01/15 10:32:59;;;;;;;36.38;12.80;;;;;;;;;;5067189;28;20127;-76
2022/01/15 10:35:27;;;;;;;33.65;11.90;;;;;;;;;;5067567;28;20389;-76
2022/01/15 10:37:53;;;;;;;31.77;11.18;;;;;;;;;;5068967;28;20476;-76
2022/01/15 10:40:22;;;;;;;27.52;11.07;;;;;;;;;;5067063;28;20149;-76
2022/01/15 10:42:55;;;;;;;25.75;9.45;;;;;;;;;;5067779;28;20047;-76
2022/01/15 10:45:21;;;;;;;27.58;10.35;;;;;;;;;;5071498;28;20582;-76
2022/01/15 10:47:49;;;;;;;25.48;10.35;;;;;;;;;;5071562;28;20045;-76
2022/01/15 10:50:32;;;;;;;24.38;10.02;;;;;;;;;;5054113;28;20047;-76
2022/01/15 10:53:05;;;;;;;24.63;10.10;;;;;;;;;;5070973;28;20091;-76
2022/01/15 10:55:32;;;;;;;20.55;8.90;;;;;;;;;;5070724;28;20048;-76
2022/01/15 10:58:00;;;;;;;20.73;8.65;;;;;;;;;;5054431;28;20515;-76
2022/01/15 11:00:27;;;;;;;26.38;9.70;;;;;;;;;;5053815;28;20037;-76
2022/01/15 11:02:55;;;;;;;24.48;10.43;;;;;;;;;;5054720;28;20678;-76
2022/01/15 11:05:23;;;;;;;25.67;9.82;;;;;;;;;;5070832;28;20072;-76
2022/01/15 11:07:49;;;;;;;24.15;9.40;;;;;;;;;;5071133;28;20392;-76
2022/01/15 11:10:15;;;;;;;25.50;9.70;;;;;;;;;;5070342;28;20058;-76
2022/01/15 11:12:41;;;;;;;23.33;9.90;;;;;;;;;;5054067;28;20045;-76
2022/01/15 11:15:08;;;;;;;28.63;10.57;;;;;;;;;;5070691;28;20078;-75
2022/01/15 11:17:34;;;;;;;26.00;10.75;;;;;;;;;;5070582;28;20253;-75
2022/01/15 11:20:03;;;;;;;32.28;11.60;;;;;;;;;;5070629;28;20137;-76
2022/01/15 11:22:31;;;;;;;28.73;10.80;;;;;;;;;;5070387;28;20044;-76
2022/01/15 11:24:58;;;;;;;30.13;11.50;;;;;;;;;;5054247;28;20396;-76
2022/01/15 11:27:28;;;;;;;31.20;11.25;;;;;;;;;;5053312;28;20110;-75
2022/01/15 11:29:57;;;;;;;29.02;11.05;;;;;;;;;;5070608;28;20053;-75
2022/01/15 11:32:25;;;;;;;28.45;12.02;;;;;;;;;;5070212;28;20570;-76
2022/01/15 11:35:00;;;;;;;25.63;10.50;;;;;;;;;;5070604;28;20119;-75
2022/01/15 11:37:27;;;;;;;33.50;11.90;;;;;;;;;;5069890;28;20040;-76
2022/01/15 11:39:55;;;;;;;31.73;12.20;;;;;;;;;;5070296;28;20044;-76
2022/01/15 11:42:26;;;;;;;30.83;11.57;;;;;;;;;;5054212;28;20055;-76
2022/01/15 11:44:52;;;;;;;30.50;11.95;;;;;;;;;;5070366;28;20044;-76
2022/01/15 11:47:21;;;;;;;30.52;12.68;;;;;;;;;;5053281;28;20128;-76
2022/01/15 11:50:00;;;;;;;33.78;12.95;;;;;;;;;;5070015;28;20032;-76
2022/01/15 11:52:26;;;;;;;37.28;14.10;;;;;;;;;;5053457;28;20415;-76
2022/01/15 11:54:58;;;;;;;37.95;14.18;;;;;;;;;;5053610;28;20480;-76
2022/01/15 11:57:26;;;;;;;39.58;15.02;;;;;;;;;;5069402;28;20044;-76
2022/01/15 11:59:53;;;;;;;40.10;14.95;;;;;;;;;;5070081;28;20048;-76
2022/01/15 12:02:33;;;;;;;39.88;15.68;;;;;;;;;;5068960;28;20051;-76
2022/01/15 12:05:27;;;;;;;44.97;16.20;;;;;;;;;;5071073;28;20040;-76
2022/01/15 12:08:02;;;;;;;40.97;14.82;;;;;;;;;;5069754;28;20048;-76
2022/01/15 12:10:41;;;;;;;46.77;16.03;;;;;;;;;;5068917;28;20047;-76
2022/01/15 12:13:11;;;;;;;39.38;14.57;;;;;;;;;;5069930;28;20068;-76
2022/01/15 12:15:37;;;;;;;43.17;15.63;;;;;;;;;;5069212;28;20048;-76
2022/01/15 12:18:14;;;;;;;41.45;15.38;;;;;;;;;;5069737;28;20115;-75
2022/01/15 12:20:40;;;;;;;36.47;13.98;;;;;;;;;;5069871;28;20508;-76
2022/01/15 12:23:19;;;;;;;44.58;15.95;;;;;;;;;;5069307;28;20041;-76
2022/01/15 12:25:45;;;;;;;38.20;13.48;;;;;;;;;;5069531;28;20048;-76
2022/01/15 12:28:14;;;;;;;34.33;13.48;;;;;;;;;;5069663;28;20040;-76
2022/01/15 12:30:42;;;;;;;41.25;14.48;;;;;;;;;;5052886;28;20059;-76
2022/01/15 12:33:13;;;;;;;40.20;13.02;;;;;;;;;;5069537;28;20090;-76
2022/01/15 12:35:43;;;;;;;50.22;14.43;;;;;;;;;;5070083;28;20040;-75
2022/01/15 12:38:13;;;;;;;54.72;14.30;;;;;;;;;;5069531;28;20489;-76
2022/01/15 12:40:44;;;;;;;98.45;15.50;;;;;;;;;;5051794;28;20063;-75
2022/01/15 12:43:11;;;;;;;63.58;12.25;;;;;;;;;;5069526;28;20445;-75
2022/01/15 12:45:38;;;;;;;52.15;13.45;;;;;;;;;;5068594;28;20052;-75
2022/01/15 12:48:04;;;;;;;42.17;13.20;;;;;;;;;;5068962;28;20055;-75
2022/01/15 12:50:41;;;;;;;53.85;14.40;;;;;;;;;;5051701;28;20048;-75
2022/01/15 12:53:07;;;;;;;51.08;14.55;;;;;;;;;;5068916;28;20060;-75
2022/01/15 12:55:37;;;;;;;59.33;14.90;;;;;;;;;;5068289;28;20103;-76
2022/01/15 12:58:04;;;;;;;56.83;13.40;;;;;;;;;;5052491;28;20036;-76
2022/01/15 13:00:34;;;;;;;76.30;14.52;;;;;;;;;;5069510;28;20080;-76
2022/01/15 13:03:08;;;;;;;66.68;15.60;;;;;;;;;;5069003;28;20076;-76
2022/01/15 13:05:36;;;;;;;62.80;14.35;;;;;;;;;;5068138;28;20121;-76
2022/01/15 13:08:07;;;;;;;66.22;14.35;;;;;;;;;;5068191;28;20389;-75
2022/01/15 13:10:47;;;;;;;70.95;14.10;;;;;;;;;;5051411;28;20036;-75
2022/01/15 13:13:14;;;;;;;73.28;14.45;;;;;;;;;;5068675;28;20522;-76
2022/01/15 13:15:40;;;;;;;74.93;13.52;;;;;;;;;;5051665;28;20044;-75
2022/01/15 13:18:10;;;;;;;57.90;13.73;;;;;;;;;;5052504;28;20396;-75
2022/01/15 13:20:36;;;;;;;104.95;12.88;;;;;;;;;;5068171;28;20079;-76
2022/01/15 13:23:03;;;;;;;127.55;13.60;;;;;;;;;;5085577;28;20040;-75
2022/01/15 13:25:30;;;;;;;77.75;12.65;;;;;;;;;;5068167;28;20041;-76
2022/01/15 13:27:57;;;;;;;111.97;15.85;;;;;;;;;;5068249;28;20101;-77
2022/01/15 13:30:24;;;;;;;85.47;16.02;;;;;;;;;;5067894;28;20527;-77
2022/01/15 13:32:53;;;;;;;108.07;15.63;;;;;;;;;;5068371;28;20029;-77
2022/01/15 13:35:23;;;;;;;72.03;13.38;;;;;;;;;;5067755;28;20044;-76
2022/01/15 13:37:53;;;;;;;82.80;14.00;;;;;;;;;;5068846;28;20041;-76
2022/01/15 13:40:26;;;;;;;77.70;14.00;;;;;;;;;;5066995;28;20051;-77
2022/01/15 13:42:52;;;;;;;91.45;15.27;;;;;;;;;;5069172;28;20039;-77
2022/01/15 13:45:19;;;;;;;90.18;15.45;;;;;;;;;;5067732;28;20048;-76
2022/01/15 13:47:45;;;;;;;107.18;15.35;;;;;;;;;;5068807;28;20087;-76
2022/01/15 13:53:12;;;;;;;89.25;16.02;;;;;;;;;;5068066;28;20515;-76
2022/01/15 13:55:38;;;;;;;104.43;16.38;;;;;;;;;;5034285;28;20076;-77
2022/01/15 13:58:12;;;;;;;95.55;17.60;;;;;;;;;;5068040;28;20085;-76
2022/01/15 14:00:38;;;;;;;80.53;17.67;;;;;;;;;;5067287;28;20123;-77
2022/01/15 14:03:04;;;;;;;86.65;16.85;;;;;;;;;;5068270;28;20032;-77
2022/01/15 14:05:31;;;;;;;107.03;17.75;;;;;;;;;;5067328;28;20040;-77
2022/01/15 14:07:57;;;;;;;108.78;17.73;;;;;;;;;;5067569;28;20064;-77
2022/01/15 14:10:25;;;;;;;137.00;18.88;;;;;;;;;;5066860;28;20041;-77
2022/01/15 14:13:02;;;;;;;96.75;18.13;;;;;;;;;;5067979;28;20060;-77
2022/01/15 14:15:32;;;;;;;85.20;14.52;;;;;;;;;;5067676;28;20503;-77
2022/01/15 14:18:00;;;;;;;109.22;15.02;;;;;;;;;;5067635;28;20041;-77
2022/01/15 14:23:41;;;;;;;167.05;18.85;;;;;;;;;;5071650;28;20102;-77
2022/01/15 14:26:28;;;;;;;141.55;20.50;;;;;;;;;;5071796;28;20102;-77
2022/01/15 14:28:55;;;;;;;153.65;18.17;;;;;;;;;;5071795;28;20060;-77
2022/01/15 14:31:22;;;;;;;157.82;20.45;;;;;;;;;;5070798;28;20076;-77
2022/01/15 14:33:49;;;;;;;181.27;19.25;;;;;;;;;;5054808;28;20052;-77
2022/01/15 14:36:15;;;;;;;121.32;16.77;;;;;;;;;;5071555;28;20095;-77
2022/01/15 14:38:41;;;;;;;130.35;17.23;;;;;;;;;;5071153;28;20044;-77
2022/01/15 14:41:09;;;;;;;164.50;18.30;;;;;;;;;;5070819;28;20331;-77
2022/01/15 14:43:36;;;;;;;171.02;18.33;;;;;;;;;;5071386;28;20083;-77
2022/01/15 14:46:02;;;;;;;154.95;16.95;;;;;;;;;;5071436;28;20040;-76
2022/01/15 14:48:29;;;;;;;156.30;17.77;;;;;;;;;;5054393;28;20041;-76
2022/01/15 14:50:55;;;;;;;164.70;19.00;;;;;;;;;;5071159;28;20079;-77
2022/01/15 14:53:21;;;;;;;156.05;18.77;;;;;;;;;;5053853;28;20302;-76
2022/01/15 14:55:47;;;;;;;171.00;19.52;;;;;;;;;;5071392;28;20185;-76
2022/01/15 14:58:13;;;;;;;191.48;20.70;;;;;;;;;;5071495;28;20400;-76
2022/01/15 15:00:39;;;;;;;145.65;17.17;;;;;;;;;;5070777;28;20044;-76
2022/01/15 15:03:05;;;;;;;155.75;17.25;;;;;;;;;;5071112;28;20128;-76
2022/01/15 15:05:31;;;;;;;140.80;16.48;;;;;;;;;;5070873;28;20037;-76
2022/01/15 15:07:57;;;;;;;157.57;17.77;;;;;;;;;;5070818;28;20047;-77